Tremley, New Jersey
Current Conditions -  °F | °C
As of 10:55 AM on Saturday 25 Oct 2014 (Local Time) from KLDJ Reporting Station
Clear Clear  
Wind Chill: 62°   Ceiling: Unl
Heat Index: 62°   Visibility: 10mi
Dew Point: 41°   Wind: 8mph
Humidity: 46%   Direction: 300°WNW
Pressure: 29.88"   Gusts: NA
Location:  40.6259°N, 74.2395°W
Report Text: KLDJ 251455Z AUTO 30007KT 10SM CLR 17/05 A2988 RMK AO2 T01660049
Loading
Personal Weather Stations






























Interactive Weather Map
Tropical Storm Tracking
New forecast layout! Learn more

10-Day Weather Forecast

Advertisements
Track Severe Weather on mobile